createdAt,value
2017-09-09T00:00:17.233Z,11.20
2017-09-09T00:02:44.790Z,11.20
2017-09-09T00:05:12.356Z,11.10
2017-09-09T00:07:39.885Z,11.00
2017-09-09T00:10:07.452Z,11.00
2017-09-09T00:12:34.994Z,11.10
2017-09-09T00:15:03.321Z,11.10
2017-09-09T00:17:30.846Z,11.00
2017-09-09T00:19:58.402Z,11.00
2017-09-09T00:22:25.955Z,11.00
2017-09-09T00:24:54.270Z,11.00
2017-09-09T00:27:21.820Z,10.90
2017-09-09T00:29:49.373Z,11.00
2017-09-09T00:32:16.915Z,11.10
2017-09-09T00:34:45.210Z,11.10
2017-09-09T00:37:12.745Z,11.10
2017-09-09T00:39:40.288Z,11.10
2017-09-09T00:42:07.833Z,11.00
2017-09-09T00:44:35.369Z,11.00
2017-09-09T00:47:02.929Z,11.00
2017-09-09T00:49:30.497Z,11.00
2017-09-09T00:51:58.027Z,11.00
2017-09-09T00:54:25.581Z,10.90
2017-09-09T00:56:53.201Z,10.80
2017-09-09T00:59:20.753Z,10.80
2017-09-09T01:01:48.337Z,10.80
2017-09-09T01:04:16.653Z,10.90
2017-09-09T01:06:44.208Z,10.90
2017-09-09T01:09:11.734Z,10.90
2017-09-09T01:11:40.052Z,10.90
2017-09-09T01:14:07.602Z,10.90
2017-09-09T01:16:35.153Z,10.90
2017-09-09T01:19:02.713Z,10.90
2017-09-09T01:21:30.257Z,10.80
2017-09-09T01:23:58.547Z,10.80
2017-09-09T01:26:26.076Z,10.80
2017-09-09T01:28:53.652Z,10.80
2017-09-09T01:31:21.975Z,10.90
2017-09-09T01:33:49.530Z,10.90
2017-09-09T01:36:17.089Z,10.80
2017-09-09T01:38:44.634Z,10.90
2017-09-09T01:41:12.152Z,10.80
2017-09-09T01:43:40.475Z,11.00
2017-09-09T01:46:08.004Z,11.00
2017-09-09T01:48:36.317Z,11.00
2017-09-09T01:51:03.895Z,10.90
2017-09-09T01:53:31.421Z,11.00
2017-09-09T01:55:58.980Z,11.00
2017-09-09T01:58:26.515Z,10.90
2017-09-09T02:00:54.843Z,11.00
2017-09-09T02:03:22.372Z,11.00
2017-09-09T02:05:49.926Z,11.10
2017-09-09T02:08:17.617Z,11.20
2017-09-09T02:10:45.152Z,11.30
2017-09-09T02:13:12.729Z,11.20
2017-09-09T02:15:40.267Z,11.30
2017-09-09T02:18:08.578Z,11.50
2017-09-09T02:20:36.112Z,11.50
2017-09-09T02:23:03.647Z,11.50
2017-09-09T02:25:31.969Z,11.60
2017-09-09T02:27:59.510Z,11.50
2017-09-09T02:30:27.092Z,11.60
2017-09-09T02:32:54.643Z,11.50
2017-09-09T02:35:22.247Z,11.50
2017-09-09T02:37:49.794Z,11.60
2017-09-09T02:40:17.351Z,11.60
2017-09-09T02:42:44.944Z,11.70
2017-09-09T02:45:13.258Z,11.90
2017-09-09T02:47:40.817Z,11.80
2017-09-09T02:50:08.388Z,11.90
2017-09-09T02:52:35.925Z,12.00
2017-09-09T02:55:03.462Z,12.00
2017-09-09T02:57:31.776Z,12.10
2017-09-09T02:59:59.309Z,12.00
2017-09-09T03:02:26.862Z,12.10
2017-09-09T03:04:55.163Z,12.10
2017-09-09T03:07:22.842Z,12.20
2017-09-09T03:09:50.381Z,12.20
2017-09-09T03:12:17.914Z,12.20
2017-09-09T03:14:46.233Z,12.30
2017-09-09T03:17:13.781Z,12.30
2017-09-09T03:19:41.341Z,12.40
2017-09-09T03:22:08.877Z,12.40
2017-09-09T03:24:37.222Z,12.50
2017-09-09T03:27:04.769Z,12.40
2017-09-09T03:29:32.301Z,12.50
2017-09-09T03:31:59.878Z,12.50
2017-09-09T03:34:27.420Z,12.50
2017-09-09T03:36:54.972Z,12.40
2017-09-09T03:39:22.509Z,12.50
2017-09-09T03:41:50.809Z,12.50
2017-09-09T03:44:18.394Z,12.40
2017-09-09T03:46:46.703Z,12.40
2017-09-09T03:49:14.275Z,12.40
2017-09-09T03:51:41.809Z,12.50
2017-09-09T03:54:09.382Z,12.40
2017-09-09T03:56:36.918Z,12.40
2017-09-09T03:59:04.514Z,12.40
2017-09-09T04:01:32.058Z,12.40
2017-09-09T04:03:59.604Z,12.40
2017-09-09T04:06:27.167Z,12.40
2017-09-09T04:08:54.701Z,12.40
2017-09-09T04:11:23.075Z,12.60
2017-09-09T04:13:51.377Z,12.60
2017-09-09T04:16:18.914Z,12.60
2017-09-09T04:18:47.253Z,12.60
2017-09-09T04:21:14.785Z,12.60
2017-09-09T04:23:42.362Z,12.60
2017-09-09T04:26:09.905Z,12.60
2017-09-09T04:28:37.472Z,12.60
2017-09-09T04:31:05.049Z,12.60
2017-09-09T04:33:32.877Z,12.60
2017-09-09T04:36:00.421Z,12.70
2017-09-09T04:38:28.745Z,12.80
2017-09-09T04:40:56.281Z,12.70
2017-09-09T04:43:23.836Z,12.80
2017-09-09T04:45:51.385Z,12.70
2017-09-09T04:48:19.678Z,12.70
2017-09-09T04:50:47.237Z,12.70
2017-09-09T04:53:14.782Z,12.70
2017-09-09T04:55:43.106Z,12.70
2017-09-09T04:58:10.662Z,12.70
2017-09-09T05:00:38.217Z,12.80
2017-09-09T05:03:05.771Z,12.70
2017-09-09T05:05:33.340Z,12.70
2017-09-09T05:08:00.870Z,12.70
2017-09-09T05:10:29.191Z,12.70
2017-09-09T05:12:56.732Z,12.70
2017-09-09T05:15:24.322Z,12.70
2017-09-09T05:17:51.870Z,12.70
2017-09-09T05:20:19.424Z,12.70
2017-09-09T05:22:46.949Z,12.70
2017-09-09T05:25:14.932Z,12.70
2017-09-09T05:27:42.477Z,12.60
2017-09-09T05:30:10.010Z,12.60
2017-09-09T05:32:38.345Z,12.60
2017-09-09T05:35:05.872Z,12.70
2017-09-09T05:37:33.441Z,12.70
2017-09-09T05:40:00.982Z,12.70
2017-09-09T05:42:29.323Z,12.70
2017-09-09T05:44:56.857Z,12.70
2017-09-09T05:47:24.401Z,12.70
2017-09-09T05:49:51.952Z,12.70
2017-09-09T05:52:19.517Z,12.70
2017-09-09T05:54:47.063Z,12.70
2017-09-09T05:57:14.633Z,12.70
2017-09-09T05:59:42.200Z,12.80
2017-09-09T06:02:09.759Z,12.80
2017-09-09T06:04:37.297Z,12.90
2017-09-09T06:07:05.622Z,12.90
2017-09-09T06:09:33.220Z,12.90
2017-09-09T06:12:01.530Z,13.00
2017-09-09T06:14:29.063Z,12.90
2017-09-09T06:16:57.398Z,13.00
2017-09-09T06:19:24.931Z,13.00
2017-09-09T06:21:52.493Z,13.00
2017-09-09T06:24:20.025Z,13.10
2017-09-09T06:26:47.589Z,13.10
2017-09-09T06:29:15.897Z,13.20
2017-09-09T06:31:43.449Z,13.10
2017-09-09T06:34:10.993Z,13.20
2017-09-09T06:36:38.579Z,13.10
2017-09-09T06:39:06.116Z,13.10
2017-09-09T06:41:33.954Z,13.20
2017-09-09T06:44:02.268Z,13.20
2017-09-09T06:46:29.806Z,13.20
2017-09-09T06:48:58.133Z,13.30
2017-09-09T06:51:25.658Z,13.30
2017-09-09T06:53:53.983Z,13.20
2017-09-09T06:56:21.530Z,13.30
2017-09-09T06:58:49.101Z,13.20
2017-09-09T07:01:16.640Z,13.20
2017-09-09T07:03:44.209Z,13.20
2017-09-09T07:06:11.773Z,13.20
2017-09-09T07:08:39.304Z,13.20
2017-09-09T07:11:06.886Z,13.20
2017-09-09T07:13:34.413Z,13.20
2017-09-09T07:16:01.978Z,13.10
2017-09-09T07:18:29.527Z,13.20
2017-09-09T07:20:57.091Z,13.20
2017-09-09T07:23:24.616Z,13.20
2017-09-09T07:25:52.214Z,13.20
2017-09-09T07:28:19.748Z,13.20
2017-09-09T07:30:48.093Z,13.20
2017-09-09T07:33:15.627Z,13.20
2017-09-09T07:35:43.156Z,13.40
2017-09-09T07:38:11.488Z,13.50
2017-09-09T07:40:39.021Z,13.50
2017-09-09T07:43:06.588Z,13.50
2017-09-09T07:45:34.200Z,13.50
2017-09-09T07:48:02.536Z,13.40
2017-09-09T07:50:30.078Z,13.30
2017-09-09T07:52:57.632Z,13.40
2017-09-09T07:55:25.191Z,13.40
2017-09-09T07:57:52.735Z,13.40
2017-09-09T08:00:20.334Z,13.40
2017-09-09T08:02:47.874Z,13.40
2017-09-09T08:05:15.425Z,13.50
2017-09-09T08:07:42.961Z,13.50
2017-09-09T08:10:11.285Z,13.60
2017-09-09T08:12:38.817Z,13.60
2017-09-09T08:15:06.369Z,13.60
2017-09-09T08:17:33.950Z,13.60
2017-09-09T08:20:01.480Z,13.60
2017-09-09T08:22:29.814Z,13.60
2017-09-09T08:24:57.489Z,13.60
2017-09-09T08:27:25.046Z,13.60
2017-09-09T08:29:52.593Z,13.60
2017-09-09T08:32:20.153Z,13.60
2017-09-09T08:34:47.685Z,13.60
2017-09-09T08:37:15.279Z,13.60
2017-09-09T08:39:42.822Z,13.50
2017-09-09T08:42:10.366Z,13.50
2017-09-09T08:44:37.925Z,13.50
2017-09-09T08:47:05.457Z,13.50
2017-09-09T08:49:33.815Z,13.40
2017-09-09T08:52:02.118Z,13.40
2017-09-09T08:54:30.426Z,13.40
2017-09-09T08:56:57.985Z,13.40
2017-09-09T08:59:25.541Z,13.50
2017-09-09T09:01:53.097Z,13.40
2017-09-09T09:04:20.641Z,13.40
2017-09-09T09:06:48.991Z,13.40
2017-09-09T09:09:16.524Z,13.40
2017-09-09T09:11:44.099Z,13.50
2017-09-09T09:14:11.661Z,13.40
2017-09-09T09:16:39.244Z,13.40
2017-09-09T09:19:07.549Z,13.50
2017-09-09T09:21:35.105Z,13.50
2017-09-09T09:24:02.633Z,13.50
2017-09-09T09:26:30.168Z,13.40
2017-09-09T09:28:57.737Z,13.40
2017-09-09T09:31:25.310Z,13.50
2017-09-09T09:33:52.843Z,13.40
2017-09-09T09:36:20.389Z,13.40
2017-09-09T09:38:47.928Z,13.50
2017-09-09T09:41:15.478Z,13.60
2017-09-09T09:43:43.026Z,13.70
2017-09-09T09:46:11.376Z,13.90
2017-09-09T09:48:38.922Z,13.90
2017-09-09T09:51:06.508Z,14.00
2017-09-09T09:53:34.823Z,14.10
2017-09-09T09:56:02.373Z,14.10
2017-09-09T09:58:29.990Z,14.10
2017-09-09T10:00:57.541Z,14.00
2017-09-09T10:03:25.109Z,14.10
2017-09-09T10:05:52.644Z,14.10
2017-09-09T10:08:20.204Z,14.10
2017-09-09T10:10:47.766Z,14.20
2017-09-09T10:13:15.314Z,14.30
2017-09-09T10:15:42.853Z,14.30
2017-09-09T10:18:10.435Z,14.30
2017-09-09T10:20:37.961Z,14.30
2017-09-09T10:23:06.301Z,14.40
2017-09-09T10:25:36.550Z,14.40
2017-09-09T10:28:04.875Z,14.40
2017-09-09T10:30:32.453Z,14.30
2017-09-09T10:33:00.014Z,14.50
2017-09-09T10:35:27.548Z,14.50
2017-09-09T10:37:55.118Z,14.60
2017-09-09T10:40:22.651Z,14.70
2017-09-09T10:42:50.957Z,14.80
2017-09-09T10:45:18.533Z,14.80
2017-09-09T10:47:46.065Z,14.90
2017-09-09T10:50:13.642Z,15.30
2017-09-09T10:52:41.182Z,15.60
2017-09-09T10:55:08.754Z,15.50
2017-09-09T10:57:36.316Z,15.70
2017-09-09T11:00:04.093Z,15.80
2017-09-09T11:02:31.654Z,15.90
2017-09-09T11:04:59.188Z,16.10
2017-09-09T11:07:26.714Z,16.20
2017-09-09T11:09:54.301Z,16.20
2017-09-09T11:12:21.860Z,16.50
2017-09-09T11:14:50.106Z,16.40
2017-09-09T11:17:18.415Z,16.70
2017-09-09T11:19:45.973Z,16.60
2017-09-09T11:22:13.502Z,17.60
2017-09-09T11:24:41.107Z,18.00
2017-09-09T11:27:08.777Z,18.00
2017-09-09T11:29:36.329Z,18.10
2017-09-09T11:32:03.897Z,18.40
2017-09-09T11:34:31.455Z,18.60
2017-09-09T11:36:59.029Z,18.50
2017-09-09T11:39:26.554Z,18.70
2017-09-09T11:41:54.133Z,18.60
2017-09-09T11:44:21.665Z,18.40
2017-09-09T11:46:49.224Z,18.10
2017-09-09T11:49:16.758Z,18.00
2017-09-09T11:51:44.320Z,17.60
2017-09-09T11:54:12.644Z,17.90
2017-09-09T11:56:40.193Z,17.90
2017-09-09T11:59:07.749Z,18.10
2017-09-09T12:01:35.279Z,18.10
2017-09-09T12:04:03.618Z,17.70
2017-09-09T12:06:31.181Z,17.80
2017-09-09T12:08:58.743Z,17.50
2017-09-09T12:11:26.298Z,17.40
2017-09-09T12:13:53.825Z,17.50
2017-09-09T12:16:21.405Z,17.40
2017-09-09T12:18:48.946Z,17.40
2017-09-09T12:21:16.480Z,17.30
2017-09-09T12:23:44.817Z,17.60
2017-09-09T12:26:12.381Z,17.60
2017-09-09T12:28:39.938Z,17.70
2017-09-09T12:31:07.469Z,17.70
2017-09-09T12:33:35.068Z,17.50
2017-09-09T12:36:02.594Z,17.40
2017-09-09T12:38:30.156Z,17.30
2017-09-09T12:40:57.688Z,17.30
2017-09-09T12:43:25.998Z,16.80
2017-09-09T12:45:53.537Z,16.80
2017-09-09T12:48:21.105Z,16.80
2017-09-09T12:50:48.633Z,16.70
2017-09-09T12:53:16.340Z,16.60
2017-09-09T12:55:43.913Z,16.60
2017-09-09T12:58:11.460Z,16.70
2017-09-09T13:00:39.020Z,17.00
2017-09-09T13:03:06.558Z,17.00
2017-09-09T13:05:34.139Z,17.00
2017-09-09T13:08:01.700Z,16.90
2017-09-09T13:10:29.292Z,16.80
2017-09-09T13:12:56.875Z,16.90
2017-09-09T13:15:25.169Z,16.80
2017-09-09T13:17:52.721Z,16.80
2017-09-09T13:20:21.024Z,16.70
2017-09-09T13:22:48.551Z,16.70
2017-09-09T13:25:16.865Z,16.70
2017-09-09T13:27:44.398Z,16.70
2017-09-09T13:30:12.717Z,16.80
2017-09-09T13:32:40.270Z,16.80
2017-09-09T13:35:07.834Z,16.90
2017-09-09T13:37:35.371Z,16.70
2017-09-09T13:40:02.917Z,16.60
2017-09-09T13:42:31.223Z,16.40
2017-09-09T13:44:58.998Z,16.30
2017-09-09T13:47:26.533Z,16.30
2017-09-09T13:49:54.108Z,16.30
2017-09-09T13:52:21.657Z,16.30
2017-09-09T13:54:49.177Z,16.30
2017-09-09T13:57:17.486Z,16.50
2017-09-09T13:59:45.031Z,16.50
2017-09-09T14:02:13.345Z,16.40
2017-09-09T14:04:40.895Z,16.40
2017-09-09T14:07:08.433Z,16.30
2017-09-09T14:09:35.994Z,16.10
2017-09-09T14:12:03.533Z,16.30
2017-09-09T14:14:32.773Z,16.20
2017-09-09T14:17:00.314Z,16.20
2017-09-09T14:19:27.879Z,16.10
2017-09-09T14:21:55.422Z,16.10
2017-09-09T14:24:23.713Z,15.80
2017-09-09T14:26:52.029Z,15.70
2017-09-09T14:29:19.586Z,15.70
2017-09-09T14:31:47.109Z,15.70
2017-09-09T14:34:14.733Z,15.70
2017-09-09T14:36:42.268Z,15.70
2017-09-09T14:39:09.853Z,15.70
2017-09-09T14:41:37.421Z,15.60
2017-09-09T14:44:05.731Z,15.50
2017-09-09T14:46:33.287Z,15.50
2017-09-09T14:49:00.824Z,15.60
2017-09-09T14:51:29.150Z,15.60
2017-09-09T14:53:56.709Z,15.60
2017-09-09T14:56:24.375Z,15.50
2017-09-09T14:58:51.909Z,15.50
2017-09-09T15:01:19.491Z,15.50
2017-09-09T15:03:47.036Z,15.60
2017-09-09T15:06:14.788Z,15.60
2017-09-09T15:08:42.344Z,15.60
2017-09-09T15:11:10.642Z,15.60
2017-09-09T15:13:38.217Z,15.60
2017-09-09T15:16:05.773Z,15.50
2017-09-09T15:18:33.417Z,15.40
2017-09-09T15:21:00.945Z,15.30
2017-09-09T15:23:29.273Z,15.30
2017-09-09T15:25:56.828Z,15.30
2017-09-09T15:28:24.393Z,15.40
2017-09-09T15:30:51.950Z,15.40
2017-09-09T15:33:19.512Z,15.30
2017-09-09T15:35:47.078Z,15.40
2017-09-09T15:38:14.654Z,15.30
2017-09-09T15:40:42.222Z,15.30
2017-09-09T15:43:09.954Z,15.20
2017-09-09T15:45:37.491Z,15.20
2017-09-09T15:48:05.086Z,15.20
2017-09-09T15:50:32.632Z,15.10
2017-09-09T15:53:00.168Z,15.20
2017-09-09T15:55:27.718Z,15.30
2017-09-09T15:57:55.270Z,15.20
2017-09-09T16:00:22.833Z,15.20
2017-09-09T16:02:51.154Z,15.00
2017-09-09T16:05:18.730Z,15.00
2017-09-09T16:07:46.296Z,15.00
2017-09-09T16:10:13.864Z,15.00
2017-09-09T16:12:41.435Z,15.00
2017-09-09T16:15:08.969Z,14.90
2017-09-09T16:17:36.552Z,14.70
2017-09-09T16:20:04.860Z,14.40
2017-09-09T16:22:32.412Z,14.40
2017-09-09T16:25:00.730Z,14.20
2017-09-09T16:27:28.289Z,14.10
2017-09-09T16:29:55.850Z,14.10
2017-09-09T16:32:23.398Z,14.00
2017-09-09T16:34:50.952Z,13.90
2017-09-09T16:37:18.496Z,13.70
2017-09-09T16:39:46.085Z,13.70
2017-09-09T16:42:13.637Z,13.60
2017-09-09T16:44:41.222Z,13.50
2017-09-09T16:47:08.783Z,13.50
2017-09-09T16:49:36.324Z,13.50
2017-09-09T16:52:04.675Z,13.40
2017-09-09T16:54:32.212Z,13.40
2017-09-09T16:56:59.740Z,13.40
2017-09-09T16:59:27.303Z,13.40
2017-09-09T17:01:54.842Z,13.30
2017-09-09T17:04:22.392Z,13.30
2017-09-09T17:06:50.709Z,13.20
2017-09-09T17:09:18.281Z,13.20
2017-09-09T17:11:45.825Z,13.20
2017-09-09T17:14:13.389Z,13.20
2017-09-09T17:16:40.928Z,13.00
2017-09-09T17:19:08.457Z,12.80
2017-09-09T17:21:36.777Z,12.70
2017-09-09T17:24:04.327Z,12.60
2017-09-09T17:26:31.889Z,12.60
2017-09-09T17:28:59.428Z,12.60
2017-09-09T17:31:27.758Z,12.60
2017-09-09T17:33:55.298Z,12.50
2017-09-09T17:36:22.863Z,12.50
2017-09-09T17:38:50.410Z,12.40
2017-09-09T17:41:17.941Z,12.30
2017-09-09T17:43:46.272Z,12.20
2017-09-09T17:46:13.819Z,12.20
2017-09-09T17:48:41.373Z,12.20
2017-09-09T17:51:08.913Z,12.20
2017-09-09T17:53:36.481Z,12.20
2017-09-09T17:56:04.028Z,12.20
2017-09-09T17:58:31.582Z,12.30
2017-09-09T18:00:59.141Z,12.20
2017-09-09T18:03:26.709Z,12.20
2017-09-09T18:05:54.342Z,12.20
2017-09-09T18:08:21.912Z,12.30
2017-09-09T18:10:49.516Z,12.20
2017-09-09T18:13:17.822Z,12.20
2017-09-09T18:15:45.403Z,12.20
2017-09-09T18:18:12.945Z,12.20
2017-09-09T18:20:41.065Z,12.30
2017-09-09T18:23:08.621Z,12.30
2017-09-09T18:25:36.174Z,12.30
2017-09-09T18:28:03.705Z,12.30
2017-09-09T18:30:31.302Z,12.30
2017-09-09T18:32:58.854Z,12.30
2017-09-09T18:35:26.425Z,12.30
2017-09-09T18:37:53.963Z,12.40
2017-09-09T18:40:21.516Z,12.40
2017-09-09T18:42:49.628Z,12.30
2017-09-09T18:45:17.185Z,12.30
2017-09-09T18:47:44.813Z,12.30
2017-09-09T18:50:12.434Z,12.30
2017-09-09T18:52:40.781Z,12.30
2017-09-09T18:55:08.335Z,12.30
2017-09-09T18:57:35.895Z,12.30
2017-09-09T19:00:03.497Z,12.40
2017-09-09T19:02:31.828Z,12.30
2017-09-09T19:04:59.370Z,12.30
2017-09-09T19:07:26.918Z,12.30
2017-09-09T19:09:54.486Z,12.40
2017-09-09T19:12:22.026Z,12.40
2017-09-09T19:14:49.589Z,12.30
2017-09-09T19:17:17.151Z,12.40
2017-09-09T19:19:44.732Z,12.40
2017-09-09T19:22:13.041Z,12.30
2017-09-09T19:24:40.625Z,12.20
2017-09-09T19:27:08.161Z,12.20
2017-09-09T19:29:35.743Z,12.20
2017-09-09T19:32:03.314Z,12.30
2017-09-09T19:34:31.113Z,12.20
2017-09-09T19:36:58.693Z,12.20
2017-09-09T19:39:26.241Z,12.20
2017-09-09T19:41:55.154Z,12.20
2017-09-09T19:44:22.704Z,12.30
2017-09-09T19:46:50.269Z,12.20
2017-09-09T19:49:17.817Z,12.20
2017-09-09T19:51:45.368Z,12.20
2017-09-09T19:54:12.929Z,12.10
2017-09-09T19:56:40.498Z,12.10
2017-09-09T19:59:08.049Z,12.10
2017-09-09T20:01:36.318Z,12.10
2017-09-09T20:04:03.879Z,12.10
2017-09-09T20:06:31.414Z,12.10
2017-09-09T20:08:59.735Z,12.00
2017-09-09T20:11:27.375Z,12.00
2017-09-09T20:13:54.936Z,12.00
2017-09-09T20:16:22.511Z,12.00
2017-09-09T20:18:50.058Z,12.10
2017-09-09T20:21:17.596Z,12.10
2017-09-09T20:23:45.960Z,12.10
2017-09-09T20:26:13.501Z,12.10
2017-09-09T20:28:41.061Z,12.10
2017-09-09T20:31:08.601Z,12.10
2017-09-09T20:33:36.149Z,12.10
2017-09-09T20:36:03.711Z,12.10
2017-09-09T20:38:31.262Z,12.10
2017-09-09T20:40:58.828Z,12.00
2017-09-09T20:43:26.363Z,12.10
2017-09-09T20:45:54.689Z,12.00
2017-09-09T20:48:23.038Z,12.00
2017-09-09T20:50:50.601Z,12.00
2017-09-09T20:53:18.192Z,11.90
2017-09-09T20:55:45.802Z,11.90
2017-09-09T20:58:13.380Z,11.90
2017-09-09T21:00:40.906Z,11.90
2017-09-09T21:03:09.245Z,11.80
2017-09-09T21:05:36.816Z,11.80
2017-09-09T21:08:05.131Z,11.80
2017-09-09T21:10:32.687Z,11.70
2017-09-09T21:13:01.001Z,11.80
2017-09-09T21:15:28.556Z,11.80
2017-09-09T21:17:56.082Z,11.70
2017-09-09T21:20:24.387Z,11.70
2017-09-09T21:22:51.974Z,11.70
2017-09-09T21:25:19.557Z,11.70
2017-09-09T21:27:47.105Z,11.70
2017-09-09T21:30:14.649Z,11.60
2017-09-09T21:32:42.214Z,11.60
2017-09-09T21:35:09.769Z,11.60
2017-09-09T21:37:38.139Z,11.70
2017-09-09T21:40:05.737Z,11.70
2017-09-09T21:42:33.320Z,11.70
2017-09-09T21:45:01.646Z,11.60
2017-09-09T21:47:29.184Z,11.60
2017-09-09T21:49:56.760Z,11.60
2017-09-09T21:52:24.298Z,11.60
2017-09-09T21:54:51.858Z,11.60
2017-09-09T21:57:19.406Z,11.60
2017-09-09T21:59:46.937Z,11.60
2017-09-09T22:02:15.286Z,11.50
2017-09-09T22:04:42.933Z,11.50
2017-09-09T22:07:10.491Z,11.50
2017-09-09T22:09:38.020Z,11.50
2017-09-09T22:12:06.339Z,11.40
2017-09-09T22:14:33.883Z,11.50
2017-09-09T22:17:01.437Z,11.50
2017-09-09T22:19:28.980Z,11.50
2017-09-09T22:21:57.274Z,11.40
2017-09-09T22:24:24.829Z,11.40
2017-09-09T22:26:53.097Z,11.40
2017-09-09T22:29:21.417Z,11.40
2017-09-09T22:31:48.957Z,11.40
2017-09-09T22:34:16.506Z,11.40
2017-09-09T22:36:44.032Z,11.40
2017-09-09T22:39:12.360Z,11.40
2017-09-09T22:41:39.900Z,11.40
2017-09-09T22:44:07.496Z,11.40
2017-09-09T22:46:35.140Z,11.50
2017-09-09T22:49:02.670Z,11.50
2017-09-09T22:51:30.988Z,11.50
2017-09-09T22:53:58.513Z,11.40
2017-09-09T22:56:26.066Z,11.50
2017-09-09T22:58:54.384Z,11.50
2017-09-09T23:01:21.913Z,11.40
2017-09-09T23:03:49.459Z,11.40
2017-09-09T23:06:17.764Z,11.40
2017-09-09T23:08:45.301Z,11.40
2017-09-09T23:11:12.857Z,11.40
2017-09-09T23:13:41.165Z,11.40
2017-09-09T23:16:09.033Z,11.40
2017-09-09T23:18:36.583Z,11.40
2017-09-09T23:21:04.121Z,11.40
2017-09-09T23:23:32.441Z,11.30
2017-09-09T23:25:59.997Z,11.30
2017-09-09T23:28:28.363Z,11.30
2017-09-09T23:30:55.938Z,11.30
2017-09-09T23:33:23.494Z,11.30
2017-09-09T23:35:51.024Z,11.30
2017-09-09T23:38:19.333Z,11.30
2017-09-09T23:40:46.889Z,11.30
2017-09-09T23:43:14.425Z,11.40
2017-09-09T23:45:41.972Z,11.40
2017-09-09T23:48:09.508Z,11.40
2017-09-09T23:50:37.817Z,11.40
2017-09-09T23:53:05.400Z,11.40
2017-09-09T23:55:32.953Z,11.40
2017-09-09T23:58:00.521Z,11.40
